Αρχική σελίδα
METAR-TAF:

METAR-TAF

Αεροδρόμια :

Ρίγα, Λετονία

γεωγραφικό πλάτος: 56-55N, γεωγραφικό μήκος: 023-58E, υψόμετρο: 10 μ

Παρών καιρός

Η αναφορά έγινε 18 λεπτά πριν, στις 23:50 UTC
Ήπιος άνεμος
Θερμοκρασία 15°C
Υγρασία 94%
Πίεση 1020 hPa
Ορατότητα 10 χλμ και άνω
Ρηχά ομίχλη

METAR: EVRA 162350Z 00000KT 9999 MIFG NSC 15/14 Q1020 NOSIG

Χρόνος: 03:08 (00:08 UTC)

Πρόγνωση Καιρού

Η αναφορά έγινε 1 ώρα και 8 λεπτά πριν, στις 23:00 UTC
Η πρόγνωση ισχύει από τις 17 στις 00 UTC έως τις 17 στις 24 UTC
Άνεμος 2 kt από μεταβλητές κατευθύνσεις
Ορατότητα 10 χλμ και άνω
Διάσπαρτα νέφη σε ύψος 3000 πόδια
Προσωρινά
από 17 στις 00 UTC έως τις 17 στις 05 UTC
Ορατότητα: 0700 μ
Αρκετά νέφη σε ύψος 200 πόδια
ομίχλη
Καθιστάμενος
από 17 στις 06 UTC έως τις 17 στις 08 UTC
Άνεμος 7 kt από Ν/NA

TAF: EVRA 162300Z 1700/1724 VRB02KT 9999 SCT030 TEMPO 1700/1705 0700 FG BKN002 BECMG 1706/1708 15007KT

Μετεωρολογικές αναφορές και προγνώσεις για περισσότερα από 4000 αεροδρόμια (δελτία METAR και TAF).

Οι διαθέσιμοι σταθμοί απεικονίζονται στο χάρτη με κίτρινες και κόκκινες κουκκίδες.

Μετακινήστε το ποντίκι πάνω από τις κουκκίδες για να δείτε το όνομα του σταθμού.

Στη συνέχεια, κάντε κλικ για να δείτε τις μετεωρολογικές αναφορές και τις προγνώσεις καιρού.

Για να αλλάξετε το χάρτη: κάντε κλικ στα πράσινα κουμπιά με τον μαύρο σταυρό για να ζουμάρετε, στο πράσινο κουμπί με την παύλα για να αφαιρέσετε το ζουμ ή στα πράσινα βέλη για να αντιπαραβάλλετε χάρτες.


METAR-TAF: